Latest Weather Observations for Newman Airport

IDW60801

Issued at 1:05 pm WST Friday 25 April 2014 (issued every 30 minutes, with the page automatically refreshed every 10 minutes)

About weather observations | Map of weather stations | Latest weather observations for WA | Other Formats
Station Details ID: 007176 Name: NEWMAN AERO Lat: -23.42 Lon: 119.80 Height: 524.0 m
Data from the previous 72 hours. | See also: Recent months at Newman Airport
Date/Time
WST
Temp
°C
App
Temp
°C
Dew
Point
Rel
Hum
%
Delta-T
°C
Wind Press
QNH
hPa
Press
MSL
hPa
Rain
since 9 am
mm
Dir
 
Spd
km/h
Gust
km/h
Spd
kts
Gust
kts
25/01:00pm 33.6 28.1 0.3 12 16.8 N 19 33 10 18 1011.5 - 0.0
25/12:30pm 35.1 29.9 0.2 11 17.7 NNW 17 28 9 15 1011.7 - 0.0
25/12:00pm 33.9 28.5 2.7 14 16.4 NNW 20 32 11 17 1012.2 1009.0 0.0
25/11:30am 34.3 30.5 1.9 13 16.8 NW 11 24 6 13 1012.5 - 0.0
25/11:00am 33.4 28.3 3.3 15 15.9 N 19 30 10 16 1012.8 - 0.0
25/10:30am 32.3 28.7 5.0 18 14.7 WNW 13 20 7 11 1013.2 - 0.0
25/10:00am 30.9 27.7 6.7 22 13.3 W 13 22 7 12 1013.6 - 0.0
25/09:30am 30.6 26.7 7.1 23 13.0 W 17 22 9 12 1014.0 - 0.0
25/09:00am 29.6 26.0 6.9 24 12.5 W 15 20 8 11 1014.2 1011.1 0.0
25/08:30am 28.6 24.7 7.2 26 11.7 W 17 24 9 13 1014.3 - 0.0
25/08:00am 26.3 24.3 6.9 29 10.5 WNW 7 9 4 5 1014.3 - 0.0
25/07:30am 23.9 21.5 5.3 30 9.6 NNW 7 9 4 5 1013.9 - 0.0
25/07:00am 22.5 20.5 6.3 35 8.5 N 6 7 3 4 1013.6 - 0.0
25/06:30am 20.8 18.4 5.2 36 7.9 NNE 7 9 4 5 1013.2 - 0.0
25/06:00am 21.0 18.7 4.6 34 8.2 NE 6 7 3 4 1012.8 1009.7 0.0
25/05:30am 21.4 19.8 4.5 33 8.5 E 2 7 1 4 1012.5 - 0.0
25/05:00am 21.8 19.4 4.4 32 8.7 ESE 6 7 3 4 1012.2 - 0.0
25/04:30am 21.7 19.6 3.9 31 8.8 WSW 4 7 2 4 1012.2 - 0.0
25/04:00am 22.4 20.4 4.5 31 9.0 N 4 7 2 4 1012.1 - 0.0
25/03:30am 22.5 19.9 4.1 30 9.2 NNE 7 9 4 5 1011.7 - 0.0
25/03:00am 23.1 20.1 4.1 29 9.6 NE 9 11 5 6 1011.6 1008.4 0.0
25/02:30am 23.5 20.4 3.4 27 10.0 NE 9 9 5 5 1011.7 - 0.0
25/02:00am 24.1 21.3 2.9 25 10.5 NNE 7 9 4 5 1012.0 - 0.0
25/01:30am 24.8 21.6 2.9 24 10.9 N 9 9 5 5 1012.2 - 0.0
25/01:00am 24.6 21.8 3.3 25 10.7 N 7 9 4 5 1012.1 - 0.0
25/12:30am 25.3 22.5 3.3 24 11.1 NE 7 9 4 5 1012.3 - 0.0
25/12:00am 26.1 22.6 3.4 23 11.5 ENE 11 13 6 7 1012.4 1009.3 0.0
 
Date/Time
WST
Temp
°C
App
Temp
°C
Dew
Point
Rel
Hum
%
Delta-T
°C
Wind Press
QNH
hPa
Press
MSL
hPa
Rain
since 9 am
mm
Dir
 
Spd
km/h
Gust
km/h
Spd
kts
Gust
kts
24/11:30pm 27.4 24.5 2.5 20 12.5 NNE 7 9 4 5 1012.7 - 0.0
24/11:00pm 27.8 24.4 2.1 19 12.9 N 9 11 5 6 1013.1 - 0.0
24/10:30pm 27.8 24.9 2.8 20 12.7 N 7 9 4 5 1013.2 - 0.0
24/10:00pm 28.5 24.7 1.9 18 13.3 NE 11 13 6 7 1013.3 - 0.0
24/09:30pm 28.9 25.2 2.2 18 13.5 NE 11 15 6 8 1013.2 - 0.0
24/09:00pm 28.4 25.5 2.6 19 13.1 NNE 7 11 4 6 1013.3 1010.2 0.0
24/08:30pm 29.2 26.3 2.5 18 13.6 NE 7 9 4 5 1013.3 - 0.0
24/08:00pm 29.4 26.6 1.8 17 13.9 NNE 6 9 3 5 1013.2 - 0.0
24/07:30pm 29.8 26.8 2.1 17 14.0 N 7 9 4 5 1012.9 - 0.0
24/07:00pm 30.2 27.1 1.6 16 14.4 N 7 9 4 5 1012.4 - 0.0
24/06:30pm 31.1 28.0 1.4 15 15.0 N 7 11 4 6 1012.1 - 0.0
24/06:00pm 32.0 28.0 0.2 13 15.8 NNE 11 13 6 7 1011.6 1008.4 0.0
24/05:30pm 32.8 29.1 -0.3 12 16.4 NNE 9 13 5 7 1011.2 - 0.0
24/05:00pm 33.3 28.7 -1.1 11 16.9 N 13 20 7 11 1010.9 - 0.0
24/04:30pm 33.9 28.4 -2.0 10 17.4 NNE 17 20 9 11 1010.8 - 0.0
24/04:00pm 34.7 30.4 -1.4 10 17.8 N 11 20 6 11 1010.7 - 0.0
24/03:30pm 34.2 29.9 -1.7 10 17.6 N 11 15 6 8 1010.6 - 0.0
24/03:00pm 34.6 28.2 -1.4 10 17.8 NNE 22 32 12 17 1010.7 1007.6 0.0
24/02:30pm 34.3 29.2 -1.7 10 17.6 NNW 15 26 8 14 1011.1 - 0.0
24/02:00pm 33.8 28.7 -2.0 10 17.4 N 15 28 8 15 1011.5 - 0.0
24/01:30pm 34.6 29.6 -1.4 10 17.7 NW 15 20 8 11 1011.7 - 0.0
24/01:00pm 33.2 27.3 -2.5 10 17.1 N 19 28 10 15 1012.2 - 0.0
24/12:30pm 32.9 27.5 -1.4 11 16.7 N 17 30 9 16 1012.8 - 0.0
24/12:00pm 33.6 27.7 -0.9 11 17.0 N 20 28 11 15 1013.3 1010.2 0.0
24/11:30am 32.4 26.0 -1.8 11 16.5 NNE 22 32 12 17 1013.8 - 0.0
24/11:00am 31.7 24.6 -1.2 12 16.0 N 26 41 14 22 1014.3 - 0.0
24/10:30am 31.8 24.3 -1.1 12 16.0 NNE 28 37 15 20 1014.7 - 0.0
24/10:00am 31.3 24.7 -0.4 13 15.5 NNE 24 33 13 18 1015.0 - 0.0
24/09:30am 30.7 24.4 -0.8 13 15.3 N 22 33 12 18 1015.1 - 0.0
24/09:00am 29.6 22.7 0.2 15 14.4 N 26 37 14 20 1015.3 1012.2 0.0
24/08:56am 29.3 21.6 0.0 15 14.3 N 30 37 16 20 1015.2 - 0.0
24/08:30am 27.8 24.4 2.1 19 12.9 NNE 9 15 5 8 1015.0 - 0.0
24/08:00am 26.1 23.9 3.4 23 11.5 NNE 4 7 2 4 1014.9 - 0.0
24/07:30am 23.6 22.2 3.5 27 10.0 CALM 0 0 0 0 1014.6 - 0.0
24/07:00am 20.3 19.1 4.8 36 7.8 CALM 0 0 0 0 1014.4 - 0.0
24/06:30am 19.7 18.4 4.2 36 7.6 CALM 0 0 0 0 1014.4 - 0.0
24/06:00am 19.7 18.3 3.8 35 7.8 CALM 0 0 0 0 1014.0 1010.9 0.0
24/05:30am 20.9 19.6 4.0 33 8.4 CALM 0 2 0 1 1013.8 - 0.0
24/05:00am 22.1 20.7 3.7 30 9.1 CALM 0 0 0 0 1013.6 - 0.0
24/04:30am 22.6 20.5 3.7 29 9.4 NE 4 7 2 4 1013.2 - 0.0
24/04:00am 22.6 21.1 3.2 28 9.6 CALM 0 0 0 0 1013.2 - 0.0
24/03:30am 23.6 20.8 3.0 26 10.2 ENE 7 9 4 5 1013.1 - 0.0
24/03:00am 23.9 22.2 2.1 24 10.6 CALM 0 0 0 0 1013.2 1010.1 0.0
24/02:30am 23.0 21.4 2.5 26 10.0 CALM 0 0 0 0 1013.5 - 0.0
24/02:00am 22.8 21.3 2.8 27 9.8 CALM 0 0 0 0 1013.5 - 0.0
24/01:30am 22.2 20.2 2.3 27 9.6 NNE 2 6 1 3 1013.7 - 0.0
24/01:00am 22.6 21.0 2.7 27 9.7 CALM 0 0 0 0 1014.1 - 0.0
24/12:30am 25.1 21.6 1.3 21 11.5 NNE 9 13 5 7 1014.1 - 0.0
24/12:00am 24.6 21.5 1.5 22 11.2 NNE 7 9 4 5 1014.4 1011.3 0.0
 
Date/Time
WST
Temp
°C
App
Temp
°C
Dew
Point
Rel
Hum
%
Delta-T
°C
Wind Press
QNH
hPa
Press
MSL
hPa
Rain
since 9 am
mm
Dir
 
Spd
km/h
Gust
km/h
Spd
kts
Gust
kts
23/11:30pm 25.4 22.1 2.2 22 11.4 NNE 9 13 5 7 1014.5 - 0.0
23/11:00pm 24.9 23.4 3.0 24 10.9 CALM 0 6 0 3 1014.6 - 0.0
23/10:30pm 24.5 22.1 4.3 27 10.3 N 6 7 3 4 1014.8 - 0.0
23/10:00pm 25.0 23.9 5.2 28 10.3 CALM 0 7 0 4 1014.9 - 0.0
23/09:30pm 23.9 22.4 3.2 26 10.3 CALM 0 0 0 0 1014.9 - 0.0
23/09:00pm 24.3 22.8 3.0 25 10.6 CALM 0 0 0 0 1015.0 1011.9 0.0
23/08:30pm 25.8 24.1 1.8 21 11.8 CALM 0 2 0 1 1015.1 - 0.0
23/08:00pm 26.9 24.0 1.3 19 12.6 N 6 7 3 4 1015.0 - 0.0
23/07:30pm 27.8 24.6 0.5 17 13.3 N 7 9 4 5 1014.8 - 0.0
23/07:00pm 28.7 25.1 0.4 16 13.8 N 9 11 5 6 1014.7 - 0.0
23/06:30pm 29.3 25.6 0.0 15 14.3 N 9 11 5 6 1014.3 - 0.0
23/06:00pm 30.3 27.0 -0.1 14 14.9 NNW 7 9 4 5 1014.0 1010.9 0.0
23/05:30pm 31.8 28.3 -1.1 12 16.0 NW 7 11 4 6 1013.5 - 0.0
23/05:00pm 33.1 29.2 -1.3 11 16.8 NW 9 13 5 7 1013.1 - 0.0
23/04:30pm 33.8 29.8 -2.0 10 17.4 NNW 9 17 5 9 1012.9 - 0.0
23/04:00pm 33.8 28.3 -2.0 10 17.4 NW 17 24 9 13 1012.8 - 0.0
23/03:30pm 33.7 28.6 -2.1 10 17.3 NNE 15 26 8 14 1012.7 - 0.0
23/03:00pm 33.8 29.5 -2.0 10 17.4 N 11 20 6 11 1012.8 1009.7 0.0
23/02:30pm 33.8 29.5 -2.0 10 17.4 N 11 19 6 10 1012.9 - 0.0
23/02:00pm 33.6 28.8 -2.2 10 17.3 N 13 28 7 15 1013.2 - 0.0
23/01:30pm 33.4 27.3 -2.3 10 17.2 NNW 20 30 11 16 1013.7 - 0.0
23/01:00pm 33.5 28.0 -2.3 10 17.3 N 17 30 9 16 1014.0 - 0.0
23/12:30pm 33.1 27.2 -2.6 10 17.1 N 19 26 10 14 1014.4 - 0.0
23/12:00pm 32.7 26.9 -1.6 11 16.6 N 19 30 10 16 1015.0 1011.9 0.0
23/11:30am 31.6 25.7 -2.4 11 16.2 N 19 30 10 16 1015.6 - 0.0
23/11:00am 31.3 25.5 -1.5 12 15.8 N 19 28 10 15 1016.0 - 0.0
23/10:30am 31.3 25.5 -1.5 12 15.8 N 19 26 10 14 1016.4 - 0.0
23/10:00am 31.0 26.1 -0.6 13 15.4 NNE 15 20 8 11 1016.7 - 0.0
23/09:30am 29.7 25.3 0.3 15 14.4 NNE 13 19 7 10 1016.8 - 0.0
23/09:00am 27.8 24.6 2.8 20 12.6 NNE 9 15 5 8 1017.0 1013.9 0.0
23/08:30am 24.8 23.3 2.9 24 10.9 CALM 0 6 0 3 1017.0 - 0.0
23/08:00am 21.8 19.3 3.9 31 8.9 W 6 7 3 4 1017.0 - 0.0
23/07:30am 19.5 18.1 3.6 35 7.7 CALM 0 0 0 0 1016.8 - 0.0
23/07:00am 18.5 16.9 2.4 34 7.6 CALM 0 7 0 4 1016.0 - 0.0
23/06:30am 16.1 13.3 2.9 41 6.2 SE 7 9 4 5 1015.6 - 0.0
23/06:00am 16.2 12.9 2.6 40 6.3 SE 9 11 5 6 1015.5 1012.3 0.0
23/05:30am 16.6 13.3 2.6 39 6.5 S 9 11 5 6 1015.5 - 0.0
23/05:00am 16.5 14.9 2.5 39 6.5 CALM 0 0 0 0 1015.1 - 0.0
23/04:30am 17.3 15.5 3.2 39 6.7 WNW 2 9 1 5 1015.0 - 0.0
23/04:00am 17.5 15.9 2.3 36 7.1 CALM 0 0 0 0 1015.0 - 0.0
23/03:30am 20.1 17.4 2.5 31 8.4 ENE 6 9 3 5 1015.0 - 0.0
23/03:00am 18.9 15.9 2.3 33 7.8 E 7 11 4 6 1015.2 1012.1 0.0
23/02:30am 18.6 15.8 2.0 33 7.8 SE 6 7 3 4 1015.0 - 0.0
23/02:00am 19.6 17.9 2.0 31 8.3 CALM 0 0 0 0 1015.0 - 0.0
23/01:30am 20.3 17.3 2.2 30 8.6 N 7 9 4 5 1015.2 - 0.0
23/01:00am 20.3 18.7 2.2 30 8.6 CALM 0 0 0 0 1015.5 - 0.0
23/12:30am 20.0 18.0 2.4 31 8.4 NNE 2 7 1 4 1015.6 - 0.0
23/12:00am 20.9 19.3 2.7 30 8.8 CALM 0 0 0 0 1015.8 1012.7 0.0
 
Date/Time
WST
Temp
°C
App
Temp
°C
Dew
Point
Rel
Hum
%
Delta-T
°C
Wind Press
QNH
hPa
Press
MSL
hPa
Rain
since 9 am
mm
Dir
 
Spd
km/h
Gust
km/h
Spd
kts
Gust
kts
22/11:30pm 21.0 19.5 3.2 31 8.7 CALM 0 0 0 0 1015.8 - 0.0
22/11:00pm 23.1 21.0 4.1 29 9.6 NE 4 6 2 3 1015.9 - 0.0
22/10:30pm 23.8 20.7 3.7 27 10.1 NE 9 11 5 6 1015.8 - 0.0
22/10:00pm 24.6 21.1 3.3 25 10.7 NE 11 15 6 8 1015.9 - 0.0
22/09:30pm 25.3 22.3 3.9 25 10.9 NE 9 15 5 8 1015.8 - 0.0
22/09:00pm 26.2 23.1 3.4 23 11.5 NNE 9 11 5 6 1015.7 1012.5 0.0
22/08:30pm 25.8 22.7 3.7 24 11.2 NNE 9 11 5 6 1015.8 - 0.0
22/08:00pm 27.5 24.3 3.2 21 12.4 N 9 11 5 6 1015.8 - 0.0
22/07:30pm 27.7 24.6 3.4 21 12.4 N 9 11 5 6 1015.6 - 0.0
22/07:00pm 28.2 25.4 3.1 20 12.8 NNE 7 9 4 5 1015.2 - 0.0
22/06:30pm 29.6 26.4 2.8 18 13.7 NE 9 11 5 6 1015.0 - 0.0
22/06:00pm 31.0 27.5 1.4 15 14.9 NE 9 11 5 6 1014.7 1011.6 0.0
22/05:30pm 32.1 28.6 1.3 14 15.6 NNE 9 13 5 7 1014.5 - 0.0
22/05:00pm 33.1 29.4 -0.1 12 16.6 NNW 9 13 5 7 1014.3 - 0.0
22/04:30pm 33.9 30.3 0.5 12 16.9 WNW 9 13 5 7 1014.2 - 0.0
22/04:00pm 34.2 30.6 0.8 12 17.0 NNW 9 30 5 16 1014.0 - 0.0
22/03:30pm 33.7 29.9 -0.8 11 17.1 N 9 17 5 9 1014.0 - 0.0
22/03:00pm 34.2 30.4 -0.4 11 17.3 WNW 9 13 5 7 1014.1 1011.0 0.0
22/02:30pm 33.7 29.7 0.4 12 16.8 NNW 11 17 6 9 1014.2 - 0.0
22/02:00pm 33.9 29.5 0.5 12 16.9 NNW 13 24 7 13 1014.3 - 0.0
22/01:30pm 33.5 27.9 0.2 12 16.7 N 19 26 10 14 1014.5 - 0.0

Other Formats:

Comma delimited format used in spreadsheet applications
http://www.bom.gov.au/fwo/IDW60801/IDW60801.94317.axf

JavaScript Object Notation format (JSON) in row-major order
http://www.bom.gov.au/fwo/IDW60801/IDW60801.94317.json